York Haven, Pennsylvania
Current Conditions -  °F | °C
As of 4:56 AM on Friday 19 Dec 2014 (Local Time) from KMDT Reporting Station
Overcast Overcast  
Wind Chill: 24°   Ceiling: 3200
Heat Index: 34°   Visibility: 10mi
Dew Point: 24°   Wind: 16mph
Humidity: 67%   Direction: 300°WNW
Pressure: 30.06"   Gusts: NA
Location:  40.11°N, 76.72°W
Report Text: KMDT 190956Z 30014KT 10SM OVC032 01/M04 A3006 RMK AO2 SLP182 T00111044
Loading
Personal Weather Stations






























Interactive Weather Map New forecast layout! Learn more

10-Day Weather Forecast

Advertisements
Track Severe Weather on mobile